createdAt,value
2024-04-30T00:00:34.140Z,1.40
2024-04-30T00:04:38.798Z,1.80
2024-04-30T00:08:40.581Z,1.40
2024-04-30T00:12:42.381Z,1.40
2024-04-30T00:16:44.753Z,1.27
2024-04-30T00:20:49.144Z,1.30
2024-04-30T00:24:50.883Z,1.80
2024-04-30T00:28:52.885Z,1.57
2024-04-30T00:32:54.608Z,1.53
2024-04-30T00:36:58.991Z,1.70
2024-04-30T00:41:00.851Z,1.70
2024-04-30T00:45:03.005Z,1.60
2024-04-30T00:49:05.004Z,1.53
2024-04-30T00:53:09.534Z,1.43
2024-04-30T00:57:11.533Z,1.60
2024-04-30T01:01:13.777Z,1.30
2024-04-30T01:05:15.664Z,1.70
2024-04-30T01:09:20.151Z,1.47
2024-04-30T01:13:22.001Z,1.50
2024-04-30T01:17:23.937Z,1.90
2024-04-30T01:21:25.796Z,1.67
2024-04-30T01:25:30.430Z,1.47
2024-04-30T01:29:32.300Z,1.47
2024-04-30T01:33:34.093Z,1.30
2024-04-30T01:37:35.947Z,1.50
2024-04-30T01:41:43.606Z,1.60
2024-04-30T01:45:45.854Z,1.60
2024-04-30T01:49:48.963Z,1.50
2024-04-30T01:53:50.693Z,1.60
2024-04-30T01:57:55.018Z,1.70
2024-04-30T02:01:56.891Z,1.57
2024-04-30T02:05:58.779Z,1.60
2024-04-30T02:10:00.756Z,1.30
2024-04-30T02:14:05.058Z,1.57
2024-04-30T02:18:07.164Z,1.47
2024-04-30T02:22:08.948Z,1.50
2024-04-30T02:26:10.759Z,1.40
2024-04-30T02:30:15.204Z,1.43
2024-04-30T02:34:17.029Z,1.37
2024-04-30T02:38:18.871Z,1.57
2024-04-30T02:42:20.631Z,1.23
2024-04-30T02:46:25.137Z,1.57
2024-04-30T02:50:26.929Z,1.60
2024-04-30T02:54:28.889Z,1.27
2024-04-30T02:58:30.926Z,1.60
2024-04-30T03:02:35.557Z,1.50
2024-04-30T03:06:38.263Z,1.37
2024-04-30T03:10:40.086Z,1.30
2024-04-30T03:14:43.179Z,1.70
2024-04-30T03:18:47.525Z,1.83
2024-04-30T03:22:49.472Z,1.50
2024-04-30T03:26:51.255Z,2.80
2024-04-30T03:30:53.013Z,1.90
2024-04-30T03:34:57.387Z,1.60
2024-04-30T03:38:59.163Z,1.50
2024-04-30T03:43:01.011Z,1.70
2024-04-30T03:47:03.036Z,1.50
2024-04-30T03:51:07.519Z,1.40
2024-04-30T03:55:09.322Z,1.57
2024-04-30T03:59:11.315Z,1.40
2024-04-30T04:03:13.260Z,1.60
2024-04-30T04:07:18.122Z,1.73
2024-04-30T04:11:20.128Z,1.70
2024-04-30T04:15:21.866Z,1.70
2024-04-30T04:19:23.659Z,1.40
2024-04-30T04:23:28.149Z,1.57
2024-04-30T04:27:29.985Z,1.57
2024-04-30T04:31:31.883Z,1.50
2024-04-30T04:35:33.725Z,1.43
2024-04-30T04:39:38.119Z,2.00
2024-04-30T04:43:39.927Z,1.70
2024-04-30T04:47:42.746Z,1.87
2024-04-30T04:51:44.495Z,1.47
2024-04-30T04:55:49.090Z,1.30
2024-04-30T04:59:51.131Z,1.30
2024-04-30T05:03:52.962Z,1.60
2024-04-30T05:07:54.771Z,1.57
2024-04-30T05:11:59.335Z,1.40
2024-04-30T05:16:01.227Z,1.40
2024-04-30T05:20:03.252Z,1.57
2024-04-30T05:24:05.556Z,1.70
2024-04-30T05:28:10.134Z,1.40
2024-04-30T05:32:11.982Z,1.53
2024-04-30T05:36:13.941Z,2.03
2024-04-30T05:40:15.817Z,1.70
2024-04-30T05:44:22.612Z,1.73
2024-04-30T05:48:24.824Z,2.63
2024-04-30T05:52:26.651Z,3.07
2024-04-30T05:56:28.462Z,3.20
2024-04-30T06:00:33.101Z,3.57
2024-04-30T06:04:35.407Z,3.07
2024-04-30T06:08:40.990Z,2.80
2024-04-30T06:12:43.411Z,2.77
2024-04-30T06:16:47.711Z,2.53
2024-04-30T06:20:49.455Z,2.70
2024-04-30T06:24:51.483Z,2.70
2024-04-30T06:28:53.345Z,2.90
2024-04-30T06:32:58.042Z,3.60
2024-04-30T06:36:59.851Z,4.93
2024-04-30T06:41:01.722Z,4.30
2024-04-30T06:45:03.779Z,4.27
2024-04-30T06:49:08.213Z,3.73
2024-04-30T06:53:10.050Z,3.33
2024-04-30T06:57:11.901Z,2.90
2024-04-30T07:01:13.667Z,3.17
2024-04-30T07:05:18.504Z,2.90
2024-04-30T07:09:20.319Z,2.77
2024-04-30T07:13:22.116Z,3.20
2024-04-30T07:17:24.022Z,3.80
2024-04-30T07:21:28.446Z,3.80
2024-04-30T07:25:30.258Z,3.40
2024-04-30T07:29:32.006Z,3.40
2024-04-30T07:33:33.914Z,2.43
2024-04-30T07:37:38.522Z,2.20
2024-04-30T07:41:40.441Z,1.93
2024-04-30T07:45:42.263Z,2.27
2024-04-30T07:49:44.335Z,2.00
2024-04-30T07:53:48.719Z,2.10
2024-04-30T07:57:51.290Z,2.70
2024-04-30T08:01:53.136Z,3.43
2024-04-30T08:05:56.382Z,3.40
2024-04-30T08:10:03.381Z,4.07
2024-04-30T08:14:06.136Z,4.27
2024-04-30T08:18:07.930Z,3.17
2024-04-30T08:22:09.810Z,2.97
2024-04-30T08:26:14.233Z,2.90
2024-04-30T08:30:16.082Z,2.10
2024-04-30T08:34:18.565Z,2.10
2024-04-30T08:38:20.447Z,1.90
2024-04-30T08:42:25.083Z,1.83
2024-04-30T08:46:30.018Z,1.73
2024-04-30T08:50:33.420Z,1.87
2024-04-30T08:54:37.040Z,1.97
2024-04-30T08:58:42.190Z,1.73
2024-04-30T09:02:52.308Z,1.90
2024-04-30T09:06:55.290Z,2.00
2024-04-30T09:10:57.204Z,1.60
2024-04-30T09:15:01.621Z,2.13
2024-04-30T09:19:03.658Z,1.98
2024-04-30T09:23:05.519Z,1.67
2024-04-30T09:27:07.312Z,1.42
2024-04-30T09:31:11.714Z,1.80
2024-04-30T09:35:24.128Z,2.17
2024-04-30T09:39:26.715Z,1.92
2024-04-30T09:43:29.232Z,1.77
2024-04-30T09:47:36.277Z,2.00
2024-04-30T09:51:40.471Z,2.05
2024-04-30T09:55:43.900Z,2.92
2024-04-30T09:59:45.803Z,2.50
2024-04-30T10:03:52.020Z,2.85
2024-04-30T10:07:55.518Z,2.47
2024-04-30T10:11:57.350Z,2.38
2024-04-30T10:15:59.342Z,2.47
2024-04-30T10:20:04.108Z,2.20
2024-04-30T10:24:16.876Z,2.13
2024-04-30T10:28:19.866Z,2.10
2024-04-30T10:32:22.256Z,1.90
2024-04-30T10:36:26.749Z,2.00
2024-04-30T10:40:28.842Z,2.17
2024-04-30T10:44:41.306Z,2.40
2024-04-30T10:48:50.395Z,2.00
2024-04-30T10:52:55.148Z,2.10
2024-04-30T10:56:56.983Z,2.22
2024-04-30T11:00:59.461Z,2.00
2024-04-30T11:05:12.139Z,2.00
2024-04-30T11:09:16.735Z,2.15
